Time;durP1;ratioP1;P1;durP2;ratioP2;P2;SDS_P1;SDS_P2;PMS_P1;PMS_P2;Temp;Humidity;BMP_temperature;BMP_pressure;BME280_temperature;BME280_humidity;BME280_pressure;Samples;Min_cycle;Max_cycle;Signal;HPM_P1;HPM_P2
2023/06/30 00:02:25;;;;;;;11.77;3.80;;;13.60;99.90;;;;;;5116338;27;20098;-38
2023/06/30 00:04:51;;;;;;;9.68;3.97;;;13.60;99.90;;;;;;5117446;27;20096;-39
2023/06/30 00:07:20;;;;;;;10.82;3.83;;;13.60;99.90;;;;;;5098856;27;20035;-38
2023/06/30 00:09:48;;;;;;;8.60;3.10;;;13.50;99.90;;;;;;5118022;27;20060;-39
2023/06/30 00:12:14;;;;;;;10.20;3.28;;;13.50;99.90;;;;;;5117375;27;20354;-39
2023/06/30 00:14:39;;;;;;;11.70;4.03;;;13.40;99.90;;;;;;5117194;27;20062;-39
2023/06/30 00:17:05;;;;;;;16.17;4.57;;;13.40;99.90;;;;;;5117339;27;20470;-39
2023/06/30 00:19:31;;;;;;;4.22;2.85;;;13.40;99.90;;;;;;5118126;27;20548;-38
2023/06/30 00:21:57;;;;;;;13.32;3.78;;;13.30;99.90;;;;;;5098958;27;20051;-39
2023/06/30 00:24:23;;;;;;;7.75;3.08;;;13.30;99.90;;;;;;5117441;27;20514;-39
2023/06/30 00:26:49;;;;;;;10.48;3.40;;;13.30;99.90;;;;;;5117432;27;20050;-39
2023/06/30 00:29:15;;;;;;;9.60;3.70;;;13.20;99.90;;;;;;5118005;27;20054;-39
2023/06/30 00:31:40;;;;;;;9.90;3.53;;;13.20;99.90;;;;;;5117324;27;20475;-39
2023/06/30 00:34:06;;;;;;;8.75;3.33;;;13.20;99.90;;;;;;5113510;27;20588;-39
2023/06/30 00:36:31;;;;;;;7.25;3.58;;;13.10;99.90;;;;;;5110965;27;20051;-39
2023/06/30 00:38:58;;;;;;;11.65;3.55;;;13.20;99.90;;;;;;5111767;27;20039;-39
2023/06/30 00:41:24;;;;;;;11.18;4.38;;;13.20;99.90;;;;;;5098427;27;20523;-39
2023/06/30 00:43:50;;;;;;;8.73;3.33;;;13.20;99.90;;;;;;5128804;27;20394;-39
2023/06/30 00:46:17;;;;;;;10.02;4.85;;;13.10;99.90;;;;;;5137071;27;20488;-39
2023/06/30 00:48:44;;;;;;;12.18;4.10;;;13.10;99.90;;;;;;5136662;27;20047;-38
2023/06/30 00:51:11;;;;;;;10.50;3.75;;;13.10;99.90;;;;;;5102576;27;20778;-38
2023/06/30 00:53:37;;;;;;;10.73;4.05;;;13.10;99.90;;;;;;5115721;27;20106;-39
2023/06/30 00:56:03;;;;;;;12.65;3.88;;;13.10;99.90;;;;;;5116458;27;20146;-38
2023/06/30 00:58:29;;;;;;;10.75;3.97;;;13.10;99.90;;;;;;5116163;27;20206;-39
2023/06/30 01:01:22;;;;;;;6.95;3.60;;;13.10;99.90;;;;;;5115598;27;20044;-39
2023/06/30 01:03:52;;;;;;;11.07;3.78;;;13.10;99.90;;;;;;5106151;27;20048;-39
2023/06/30 01:06:29;;;;;;;9.57;3.33;;;13.00;99.90;;;;;;5080976;27;20050;-38
2023/06/30 01:08:59;;;;;;;10.05;3.53;;;13.00;99.90;;;;;;5115021;27;20065;-38
2023/06/30 01:11:26;;;;;;;6.75;3.60;;;13.00;99.90;;;;;;5115991;27;20040;-39
2023/06/30 01:13:53;;;;;;;8.85;3.08;;;12.90;99.90;;;;;;5120480;27;20043;-39
2023/06/30 01:16:21;;;;;;;10.98;3.50;;;12.90;99.90;;;;;;5137601;27;20391;-38
2023/06/30 01:18:52;;;;;;;8.68;3.50;;;12.90;99.90;;;;;;5117390;27;20103;-39
2023/06/30 01:21:21;;;;;;;8.65;3.25;;;12.90;99.90;;;;;;5118111;27;20043;-38
2023/06/30 01:23:54;;;;;;;13.38;3.67;;;12.90;99.90;;;;;;5136161;27;20134;-38
2023/06/30 01:26:21;;;;;;;8.82;3.67;;;12.90;99.90;;;;;;5137461;27;20427;-38
2023/06/30 01:28:48;;;;;;;9.27;3.75;;;12.80;99.90;;;;;;5118238;27;20051;-39
2023/06/30 01:31:14;;;;;;;8.48;3.33;;;12.80;99.90;;;;;;5135277;27;20132;-39
2023/06/30 01:33:39;;;;;;;13.05;3.13;;;12.70;99.90;;;;;;5135646;27;20057;-38
2023/06/30 01:36:07;;;;;;;10.90;3.50;;;12.70;99.90;;;;;;5105610;27;20043;-39
2023/06/30 01:38:33;;;;;;;13.57;4.15;;;12.70;99.90;;;;;;5110087;27;20055;-39
2023/06/30 01:41:00;;;;;;;11.80;4.65;;;12.60;99.90;;;;;;5115296;27;20413;-38
2023/06/30 01:43:28;;;;;;;7.53;3.20;;;12.60;99.90;;;;;;5114745;27;20070;-38
2023/06/30 01:45:55;;;;;;;7.00;3.35;;;12.50;99.90;;;;;;5096239;27;20098;-38
2023/06/30 01:48:21;;;;;;;8.75;3.75;;;12.50;99.90;;;;;;5114810;27;20042;-38
2023/06/30 01:50:48;;;;;;;9.60;3.28;;;12.40;99.90;;;;;;5114710;27;20289;-39
2023/06/30 01:53:13;;;;;;;9.38;3.75;;;12.40;99.90;;;;;;5114185;27;20087;-39
2023/06/30 01:55:45;;;;;;;9.35;3.10;;;12.30;99.90;;;;;;5096575;27;20295;-38
2023/06/30 01:58:11;;;;;;;8.73;3.70;;;12.30;99.90;;;;;;5096180;27;20059;-39
2023/06/30 02:00:37;;;;;;;11.02;4.20;;;12.30;99.90;;;;;;5110749;27;20442;-38
2023/06/30 02:03:02;;;;;;;8.63;2.95;;;12.20;99.90;;;;;;5113395;27;20050;-38
2023/06/30 02:05:28;;;;;;;9.27;3.70;;;12.20;99.90;;;;;;5113282;27;20058;-38
2023/06/30 02:07:53;;;;;;;7.32;3.92;;;12.20;99.90;;;;;;5114244;27;20058;-39
2023/06/30 02:10:19;;;;;;;7.07;3.40;;;12.10;99.90;;;;;;5097127;27;20573;-38
2023/06/30 02:12:45;;;;;;;9.00;3.67;;;12.10;99.90;;;;;;5114680;27;20043;-38
2023/06/30 02:15:10;;;;;;;9.43;3.90;;;12.10;99.90;;;;;;5114820;27;20043;-39
2023/06/30 02:17:36;;;;;;;7.75;3.33;;;12.10;99.90;;;;;;5113892;27;20545;-39
2023/06/30 02:20:03;;;;;;;8.65;3.90;;;12.10;99.90;;;;;;5113944;27;20546;-39
2023/06/30 02:22:31;;;;;;;8.27;3.40;;;12.10;99.90;;;;;;5113698;27;20061;-38
2023/06/30 02:24:56;;;;;;;6.35;4.13;;;12.00;99.90;;;;;;5113689;27;20051;-39
2023/06/30 02:27:22;;;;;;;7.80;3.63;;;12.00;99.90;;;;;;5113828;27;20047;-38
2023/06/30 02:29:48;;;;;;;9.98;3.67;;;11.90;99.90;;;;;;5115117;27;20043;-38
2023/06/30 02:32:14;;;;;;;8.00;3.58;;;11.90;99.90;;;;;;5094831;27;20051;-38
2023/06/30 02:34:39;;;;;;;9.63;3.75;;;11.80;99.90;;;;;;5106452;27;20475;-38
2023/06/30 02:37:05;;;;;;;9.40;3.25;;;11.80;99.90;;;;;;5111573;27;20043;-38
2023/06/30 02:39:31;;;;;;;6.32;3.22;;;11.80;99.90;;;;;;5125846;27;20074;-38
2023/06/30 02:41:56;;;;;;;7.70;3.35;;;11.80;99.90;;;;;;5134840;27;20555;-38
2023/06/30 02:44:22;;;;;;;6.55;4.03;;;11.70;99.90;;;;;;5134012;27;20042;-39
2023/06/30 02:46:48;;;;;;;9.80;3.47;;;11.70;99.90;;;;;;5135149;27;20047;-39
2023/06/30 02:49:13;;;;;;;8.90;3.42;;;11.70;99.90;;;;;;5132528;27;20066;-39
2023/06/30 02:51:39;;;;;;;5.75;3.17;;;11.70;99.90;;;;;;5123499;27;20039;-38
2023/06/30 02:54:05;;;;;;;7.72;3.30;;;11.70;99.90;;;;;;5134703;27;20039;-38
2023/06/30 02:56:30;;;;;;;9.88;4.70;;;11.70;99.90;;;;;;5134963;27;20086;-39
2023/06/30 02:58:56;;;;;;;5.65;3.47;;;11.60;99.90;;;;;;5135153;27;20042;-38
2023/06/30 03:01:22;;;;;;;7.57;3.58;;;11.60;99.90;;;;;;5135674;27;20050;-39
2023/06/30 03:03:48;;;;;;;8.15;3.50;;;11.60;99.90;;;;;;5116298;27;20054;-38
2023/06/30 03:06:14;;;;;;;9.90;3.28;;;11.60;99.90;;;;;;5116637;27;20326;-38
2023/06/30 03:08:40;;;;;;;4.72;3.25;;;11.60;99.90;;;;;;5099262;27;20404;-39
2023/06/30 03:11:06;;;;;;;6.13;3.88;;;11.50;99.90;;;;;;5114001;27;20047;-38
2023/06/30 03:13:31;;;;;;;7.72;3.53;;;11.50;99.90;;;;;;5094476;27;20051;-38
2023/06/30 03:15:57;;;;;;;8.40;4.13;;;11.50;99.90;;;;;;5113749;27;20416;-38
2023/06/30 03:18:23;;;;;;;11.98;3.88;;;11.50;99.90;;;;;;5112624;28;20083;-38
2023/06/30 03:20:49;;;;;;;9.93;3.50;;;11.50;99.90;;;;;;5113956;27;20039;-38
2023/06/30 03:23:15;;;;;;;9.90;3.50;;;11.50;99.90;;;;;;5093813;27;20096;-38
2023/06/30 03:25:41;;;;;;;7.65;4.18;;;11.50;99.90;;;;;;5113602;27;20064;-38
2023/06/30 03:28:07;;;;;;;7.85;4.22;;;11.50;99.90;;;;;;5094030;27;20059;-39
2023/06/30 03:30:32;;;;;;;10.10;4.13;;;11.50;99.90;;;;;;5124562;27;20117;-38
2023/06/30 03:32:58;;;;;;;7.53;3.92;;;11.40;99.90;;;;;;5137155;27;20583;-39
2023/06/30 03:35:23;;;;;;;7.75;4.10;;;11.40;99.90;;;;;;5115939;27;20147;-39
2023/06/30 03:37:49;;;;;;;5.28;3.50;;;11.40;99.90;;;;;;5114533;27;20587;-38
2023/06/30 03:40:15;;;;;;;6.50;3.65;;;11.40;99.90;;;;;;5138800;27;20053;-38
2023/06/30 03:42:40;;;;;;;7.05;3.33;;;11.40;99.90;;;;;;5134599;27;20073;-38
2023/06/30 03:45:07;;;;;;;8.02;3.67;;;11.40;99.90;;;;;;5106972;27;20051;-38
2023/06/30 03:47:32;;;;;;;6.15;2.58;;;11.40;99.90;;;;;;5099315;27;20462;-38
2023/06/30 03:49:58;;;;;;;7.55;3.40;;;11.40;99.90;;;;;;5099042;27;20051;-38
2023/06/30 03:52:24;;;;;;;8.93;3.33;;;11.70;99.90;;;;;;5098773;27;20051;-38
2023/06/30 03:54:50;;;;;;;10.48;3.65;;;12.10;99.90;;;;;;5118077;27;20405;-39
2023/06/30 03:57:16;;;;;;;6.88;2.78;;;12.70;99.90;;;;;;5116710;27;20405;-39
2023/06/30 03:59:41;;;;;;;5.60;2.67;;;13.10;99.90;;;;;;5117542;27;20170;-39
2023/06/30 04:02:07;;;;;;;6.47;2.90;;;13.60;99.90;;;;;;5102026;27;20051;-39
2023/06/30 04:04:33;;;;;;;8.70;3.53;;;14.10;99.90;;;;;;5116022;27;20039;-39
2023/06/30 04:06:58;;;;;;;6.97;3.55;;;14.50;99.90;;;;;;5096162;27;20047;-39
2023/06/30 04:09:24;;;;;;;10.75;4.22;;;14.90;99.90;;;;;;5081520;27;20090;-39
2023/06/30 04:11:50;;;;;;;7.00;3.88;;;15.30;99.90;;;;;;5098784;27;20474;-39
2023/06/30 04:14:16;;;;;;;6.90;4.38;;;15.60;99.90;;;;;;5116869;27;20394;-39
2023/06/30 04:16:42;;;;;;;8.05;4.60;;;16.00;99.90;;;;;;5116446;27;20103;-39
2023/06/30 04:19:07;;;;;;;6.90;4.75;;;16.50;99.90;;;;;;5117997;27;20047;-40
2023/06/30 04:21:33;;;;;;;6.60;4.60;;;16.90;99.90;;;;;;5098256;27;20039;-39
2023/06/30 04:23:58;;;;;;;7.30;4.57;;;17.30;99.90;;;;;;5116095;27;20082;-39
2023/06/30 04:26:24;;;;;;;7.70;5.18;;;17.70;99.90;;;;;;5116054;27;20047;-40
2023/06/30 04:28:50;;;;;;;9.60;5.50;;;18.00;99.90;;;;;;5117876;27;20043;-40
2023/06/30 04:31:16;;;;;;;8.23;4.65;;;18.20;99.90;;;;;;5081585;27;20061;-40
2023/06/30 04:33:41;;;;;;;7.55;4.90;;;18.30;99.90;;;;;;5098242;27;20054;-40
2023/06/30 04:36:07;;;;;;;6.47;4.40;;;18.40;99.90;;;;;;5107590;27;20047;-40
2023/06/30 04:38:33;;;;;;;7.22;3.63;;;18.70;99.90;;;;;;5110574;27;20090;-40
2023/06/30 04:40:59;;;;;;;11.77;4.55;;;18.40;99.90;;;;;;5116032;27;20039;-40
2023/06/30 04:43:24;;;;;;;9.93;3.97;;;17.80;99.90;;;;;;5115400;27;20054;-39
2023/06/30 04:45:51;;;;;;;7.40;3.38;;;17.30;99.90;;;;;;5116852;27;20088;-40
2023/06/30 04:48:16;;;;;;;11.05;4.78;;;16.90;99.90;;;;;;5115929;27;20079;-41
2023/06/30 04:50:42;;;;;;;9.48;4.05;;;16.50;99.90;;;;;;5115192;27;20487;-40
2023/06/30 04:53:08;;;;;;;12.63;4.60;;;16.20;99.90;;;;;;5114672;27;20047;-40
2023/06/30 04:55:33;;;;;;;8.50;4.05;;;16.20;99.90;;;;;;5115197;27;20055;-39
2023/06/30 04:57:59;;;;;;;10.55;4.15;;;16.10;99.90;;;;;;5097056;27;20493;-39
2023/06/30 05:00:26;;;;;;;7.97;4.07;;;16.00;99.90;;;;;;5116363;27;20435;-40
2023/06/30 05:02:52;;;;;;;11.02;4.15;;;17.00;99.90;;;;;;5115917;27;20050;-40
2023/06/30 05:05:18;;;;;;;9.43;3.85;;;18.30;99.90;;;;;;5116106;27;20083;-40
2023/06/30 05:07:44;;;;;;;9.23;3.22;;;19.60;99.90;;;;;;5114899;27;20073;-40
2023/06/30 05:10:10;;;;;;;6.50;3.10;;;20.90;99.90;;;;;;5098538;27;20572;-40
2023/06/30 05:12:36;;;;;;;8.77;3.22;;;22.00;99.90;;;;;;5135587;27;20051;-40
2023/06/30 05:15:02;;;;;;;10.48;3.22;;;23.00;99.90;;;;;;5136528;27;20606;-41
2023/06/30 05:17:27;;;;;;;7.32;2.90;;;23.70;99.90;;;;;;5136600;27;20557;-41
2023/06/30 05:19:53;;;;;;;10.15;2.63;;;24.10;99.90;;;;;;5121734;27;20176;-40
2023/06/30 05:22:19;;;;;;;10.07;3.10;;;24.70;99.90;;;;;;5115494;27;20043;-41
2023/06/30 05:24:44;;;;;;;7.00;2.45;;;25.10;99.90;;;;;;5116298;27;20512;-41
2023/06/30 05:27:10;;;;;;;7.88;2.42;;;25.60;99.90;;;;;;5097593;27;20078;-42
2023/06/30 05:29:36;;;;;;;6.72;2.40;;;25.80;99.90;;;;;;5115899;27;20428;-43
2023/06/30 05:32:01;;;;;;;7.70;2.50;;;25.90;99.90;;;;;;5115196;27;20051;-41
2023/06/30 05:34:28;;;;;;;6.25;2.42;;;26.30;99.90;;;;;;5110108;27;20040;-41
2023/06/30 05:36:55;;;;;;;6.63;2.15;;;26.70;98.70;;;;;;5111589;27;20124;-41
2023/06/30 05:39:24;;;;;;;8.77;2.78;;;26.70;99.20;;;;;;5110317;27;20478;-42
2023/06/30 05:41:50;;;;;;;9.30;2.75;;;26.90;99.00;;;;;;5116316;27;20050;-41
2023/06/30 05:44:15;;;;;;;7.20;2.28;;;27.20;98.40;;;;;;5115608;27;20043;-41
2023/06/30 05:46:41;;;;;;;5.65;2.40;;;27.60;98.50;;;;;;5115070;27;20047;-41
2023/06/30 05:49:07;;;;;;;5.82;2.45;;;27.90;97.00;;;;;;5115096;27;20047;-42
2023/06/30 05:51:34;;;;;;;9.00;2.50;;;28.20;97.50;;;;;;5117561;27;20038;-42
2023/06/30 05:54:03;;;;;;;5.18;1.75;;;28.50;97.50;;;;;;5134732;27;20505;-42
2023/06/30 05:56:29;;;;;;;6.45;2.45;;;28.30;96.30;;;;;;5127164;27;20089;-42
2023/06/30 05:58:55;;;;;;;7.22;2.05;;;28.20;95.50;;;;;;5115075;27;20082;-42
2023/06/30 06:01:21;;;;;;;6.22;2.33;;;28.40;96.80;;;;;;5115200;27;20039;-44
2023/06/30 06:03:47;;;;;;;6.90;2.22;;;28.60;96.10;;;;;;5114967;27;20271;-42
2023/06/30 06:06:13;;;;;;;6.88;2.22;;;28.90;96.30;;;;;;5096465;27;20058;-42
2023/06/30 06:08:42;;;;;;;7.15;2.47;;;28.90;96.40;;;;;;5115226;27;20039;-42
2023/06/30 06:11:07;;;;;;;6.97;2.40;;;29.10;95.40;;;;;;5123843;27;20056;-42
2023/06/30 06:13:35;;;;;;;5.43;2.00;;;28.70;95.50;;;;;;5115009;27;20059;-41
2023/06/30 06:16:02;;;;;;;8.23;1.98;;;27.80;96.20;;;;;;5135144;27;20310;-41
2023/06/30 06:18:28;;;;;;;5.57;1.98;;;27.10;96.00;;;;;;5134965;27;20082;-41
2023/06/30 06:20:53;;;;;;;7.75;2.53;;;27.00;96.60;;;;;;5125077;27;20104;-42
2023/06/30 06:23:21;;;;;;;5.63;1.90;;;26.80;96.50;;;;;;5128284;27;20489;-41
2023/06/30 06:25:47;;;;;;;9.25;2.70;;;27.10;96.70;;;;;;5080075;28;20066;-42
2023/06/30 06:28:12;;;;;;;8.27;2.00;;;26.90;95.20;;;;;;5110608;27;20058;-41
2023/06/30 06:30:38;;;;;;;7.15;2.35;;;27.00;95.20;;;;;;5114727;27;20480;-41
2023/06/30 06:33:03;;;;;;;8.70;2.00;;;26.90;96.40;;;;;;5095878;27;20487;-41
2023/06/30 06:35:29;;;;;;;4.47;1.58;;;26.60;96.90;;;;;;5103408;27;20440;-43
2023/06/30 06:37:55;;;;;;;5.18;1.80;;;26.90;96.70;;;;;;5107866;27;20413;-42
2023/06/30 06:40:20;;;;;;;7.10;2.05;;;27.30;95.40;;;;;;5114106;27;20387;-42
2023/06/30 06:42:46;;;;;;;6.47;2.53;;;27.30;94.40;;;;;;5132249;27;20202;-41
2023/06/30 06:45:12;;;;;;;8.40;2.03;;;27.60;94.40;;;;;;5113814;27;20336;-41
2023/06/30 06:48:15;;;;;;;5.20;2.00;;;27.40;94.60;;;;;;5113833;27;20481;-41
2023/06/30 06:50:41;;;;;;;5.15;1.73;;;27.40;93.90;;;;;;5114293;27;20047;-41
2023/06/30 06:53:07;;;;;;;4.47;1.75;;;26.60;95.00;;;;;;5109642;27;20088;-41
2023/06/30 06:55:32;;;;;;;6.13;2.30;;;25.60;94.60;;;;;;5101370;27;20479;-41
2023/06/30 06:57:58;;;;;;;4.03;2.05;;;25.20;95.60;;;;;;5099275;27;20045;-42
2023/06/30 07:00:24;;;;;;;4.85;2.08;;;25.40;96.20;;;;;;5101036;27;20522;-42
2023/06/30 07:02:50;;;;;;;6.13;2.08;;;25.20;96.30;;;;;;5112055;27;20671;-41
2023/06/30 07:05:16;;;;;;;5.80;1.80;;;25.30;96.50;;;;;;5132685;27;20158;-41
2023/06/30 07:07:42;;;;;;;4.55;1.98;;;24.90;96.90;;;;;;5113408;27;20154;-42
2023/06/30 07:10:08;;;;;;;7.20;2.08;;;24.30;96.50;;;;;;5113809;27;20069;-41
2023/06/30 07:12:33;;;;;;;7.22;2.55;;;23.50;97.50;;;;;;5113168;27;20043;-41
2023/06/30 07:14:59;;;;;;;6.30;2.03;;;23.10;98.00;;;;;;5095276;27;20096;-41
2023/06/30 07:17:25;;;;;;;3.90;1.73;;;23.90;98.70;;;;;;5113215;27;20523;-41
2023/06/30 07:19:50;;;;;;;5.93;2.15;;;24.30;97.90;;;;;;5113613;27;20088;-42
2023/06/30 07:22:16;;;;;;;7.43;1.77;;;25.00;97.10;;;;;;5113099;27;20046;-41
2023/06/30 07:24:42;;;;;;;5.95;1.85;;;25.40;96.60;;;;;;5094758;27;20054;-41
2023/06/30 07:27:07;;;;;;;7.57;1.75;;;25.70;96.40;;;;;;5112478;28;20043;-41
2023/06/30 07:29:33;;;;;;;4.15;2.00;;;25.80;95.90;;;;;;5112989;27;20497;-41
2023/06/30 07:31:58;;;;;;;6.30;1.98;;;24.90;95.80;;;;;;5112452;27;20400;-41
2023/06/30 07:34:25;;;;;;;6.68;2.08;;;24.80;96.00;;;;;;5108087;27;20052;-41
2023/06/30 07:36:51;;;;;;;5.10;1.75;;;24.70;96.90;;;;;;5109806;27;20047;-42
2023/06/30 07:39:17;;;;;;;6.35;2.05;;;25.10;97.40;;;;;;5108231;27;20493;-41
2023/06/30 07:41:43;;;;;;;10.10;2.03;;;25.10;96.60;;;;;;5113175;27;20085;-41
2023/06/30 07:44:11;;;;;;;5.75;1.83;;;25.00;96.30;;;;;;5099060;27;20453;-41
2023/06/30 07:46:38;;;;;;;6.13;1.80;;;25.30;96.90;;;;;;5133188;27;20053;-43
2023/06/30 07:49:04;;;;;;;7.15;1.80;;;25.50;96.80;;;;;;5108940;27;20050;-43
2023/06/30 07:51:30;;;;;;;7.85;2.30;;;24.80;95.50;;;;;;5107760;28;20469;-41
2023/06/30 07:53:56;;;;;;;5.72;2.00;;;24.90;96.00;;;;;;5099308;27;20118;-41
2023/06/30 07:56:22;;;;;;;8.25;2.30;;;24.90;96.00;;;;;;5116035;27;20676;-41
2023/06/30 07:58:48;;;;;;;6.00;2.00;;;24.90;95.90;;;;;;5134025;27;20047;-42
2023/06/30 08:01:14;;;;;;;7.55;1.88;;;24.40;95.80;;;;;;5133452;27;20493;-41
2023/06/30 08:03:40;;;;;;;5.18;1.92;;;24.60;96.10;;;;;;5118040;27;20057;-41
2023/06/30 08:06:05;;;;;;;4.32;1.80;;;24.70;96.20;;;;;;5112348;27;20047;-41
2023/06/30 08:08:32;;;;;;;7.15;2.10;;;24.70;96.10;;;;;;5111156;27;20054;-41
2023/06/30 08:10:58;;;;;;;5.25;1.48;;;24.60;95.80;;;;;;5101760;27;20044;-41
2023/06/30 08:13:25;;;;;;;5.13;1.73;;;24.80;95.10;;;;;;5100992;27;20418;-41
2023/06/30 08:15:50;;;;;;;5.28;1.55;;;25.00;94.40;;;;;;5102318;27;20395;-41
2023/06/30 08:18:16;;;;;;;5.25;1.48;;;24.90;94.90;;;;;;5114445;27;20130;-41
2023/06/30 08:20:42;;;;;;;7.38;2.20;;;24.90;94.10;;;;;;5098272;27;20039;-41
2023/06/30 08:23:08;;;;;;;11.05;2.17;;;24.90;95.20;;;;;;5084511;27;20382;-41
2023/06/30 08:25:33;;;;;;;4.60;1.60;;;24.80;95.10;;;;;;5136884;27;20061;-41
2023/06/30 08:27:59;;;;;;;6.60;2.13;;;24.90;95.70;;;;;;5136865;27;20031;-42
2023/06/30 08:30:25;;;;;;;6.45;1.67;;;25.10;95.70;;;;;;5101015;27;20056;-41
2023/06/30 08:32:50;;;;;;;3.17;1.63;;;24.70;95.30;;;;;;5077167;27;20481;-42
2023/06/30 08:35:16;;;;;;;5.13;1.70;;;24.20;94.40;;;;;;5088998;27;20466;-41
2023/06/30 08:37:42;;;;;;;4.47;1.73;;;23.90;95.10;;;;;;5111101;27;20051;-41
2023/06/30 08:40:09;;;;;;;6.85;2.00;;;23.90;95.00;;;;;;5116676;27;20039;-41
2023/06/30 08:42:36;;;;;;;8.57;2.03;;;23.70;95.60;;;;;;5107718;27;20086;-41
2023/06/30 08:45:03;;;;;;;8.35;2.22;;;23.80;96.20;;;;;;5114074;27;20048;-41
2023/06/30 08:47:32;;;;;;;6.20;1.65;;;24.10;95.80;;;;;;5104430;27;20039;-42
2023/06/30 08:49:58;;;;;;;8.38;2.33;;;24.10;95.50;;;;;;5085528;27;20039;-42
2023/06/30 08:52:25;;;;;;;7.68;2.08;;;24.30;94.90;;;;;;5111485;27;20047;-42
2023/06/30 08:54:51;;;;;;;5.68;2.10;;;23.60;94.50;;;;;;5106088;27;20038;-40
2023/06/30 08:57:17;;;;;;;8.23;2.20;;;23.30;94.80;;;;;;5079938;27;20047;-41
2023/06/30 08:59:46;;;;;;;9.52;2.60;;;23.20;94.90;;;;;;5095178;27;20499;-40
2023/06/30 09:02:12;;;;;;;5.78;1.67;;;23.30;95.10;;;;;;5077457;27;20054;-41
2023/06/30 09:04:40;;;;;;;4.90;1.58;;;23.20;95.80;;;;;;5096211;27;20188;-41
2023/06/30 09:07:09;;;;;;;7.10;2.22;;;23.20;95.50;;;;;;5102862;27;20150;-43
2023/06/30 09:09:43;;;;;;;6.65;1.65;;;23.40;95.70;;;;;;5097053;27;20040;-41
2023/06/30 09:12:10;;;;;;;6.07;1.80;;;23.80;94.90;;;;;;5095344;27;20040;-40
2023/06/30 09:14:39;;;;;;;5.85;1.60;;;24.00;94.70;;;;;;5095756;27;20039;-41
2023/06/30 09:17:05;;;;;;;4.47;1.95;;;24.20;94.20;;;;;;5097680;27;20049;-42
2023/06/30 09:19:31;;;;;;;7.90;1.98;;;24.10;94.80;;;;;;5100510;27;20415;-40
2023/06/30 09:21:57;;;;;;;5.03;1.90;;;23.90;93.90;;;;;;5095203;27;20047;-41
2023/06/30 09:24:23;;;;;;;5.45;1.60;;;24.20;94.90;;;;;;5077747;28;20100;-41
2023/06/30 09:26:49;;;;;;;6.05;1.70;;;24.30;93.50;;;;;;5098755;27;20043;-40
2023/06/30 09:29:20;;;;;;;8.00;2.35;;;24.10;93.50;;;;;;5098727;27;20081;-41
2023/06/30 09:31:50;;;;;;;7.13;2.00;;;24.10;93.30;;;;;;5106719;27;20031;-41
2023/06/30 09:34:15;;;;;;;5.22;2.00;;;24.00;93.90;;;;;;5108923;27;20058;-41
2023/06/30 09:36:52;;;;;;;4.65;2.22;;;23.90;93.90;;;;;;5110657;27;20039;-41
2023/06/30 09:39:19;;;;;;;9.85;2.20;;;23.50;94.70;;;;;;5101372;27;20047;-40
2023/06/30 09:41:46;;;;;;;6.22;2.70;;;23.20;96.60;;;;;;5113701;27;20590;-40
2023/06/30 09:44:13;;;;;;;4.85;2.00;;;23.20;95.40;;;;;;5115303;27;20071;-43
2023/06/30 09:46:46;;;;;;;5.00;1.55;;;23.40;96.70;;;;;;5114154;27;20035;-40
2023/06/30 09:49:30;;;;;;;6.60;2.50;;;23.70;95.90;;;;;;5113948;27;20055;-41
2023/06/30 09:51:57;;;;;;;5.05;2.22;;;23.70;94.10;;;;;;5104262;27;20089;-41
2023/06/30 09:54:24;;;;;;;5.97;2.05;;;23.90;95.40;;;;;;5096177;27;20512;-42
2023/06/30 09:57:00;;;;;;;7.63;2.72;;;24.00;94.50;;;;;;5113939;27;20043;-41
2023/06/30 09:59:26;;;;;;;5.07;2.20;;;23.90;95.10;;;;;;5113674;27;20066;-41
2023/06/30 10:01:53;;;;;;;6.50;1.75;;;23.80;95.60;;;;;;5113206;27;20043;-42
2023/06/30 10:04:19;;;;;;;4.65;1.70;;;23.50;93.70;;;;;;5098323;27;20099;-41
2023/06/30 10:06:47;;;;;;;4.85;1.65;;;23.30;94.20;;;;;;5113856;27;20295;-42
2023/06/30 10:09:15;;;;;;;5.13;1.73;;;23.50;94.20;;;;;;5096144;27;20055;-40
2023/06/30 10:11:43;;;;;;;11.30;2.28;;;23.60;95.90;;;;;;5115242;27;20155;-41
2023/06/30 10:14:10;;;;;;;5.40;2.08;;;24.00;95.10;;;;;;5113502;27;20047;-41
2023/06/30 10:16:37;;;;;;;6.35;2.13;;;24.00;95.10;;;;;;5112319;27;20092;-40
2023/06/30 10:19:05;;;;;;;5.35;2.15;;;24.40;94.80;;;;;;5115093;27;20108;-40
2023/06/30 10:21:32;;;;;;;3.90;2.10;;;24.50;94.60;;;;;;5113027;27;20900;-41
2023/06/30 10:24:01;;;;;;;4.45;1.73;;;24.60;95.20;;;;;;5114252;27;20047;-42
2023/06/30 10:26:27;;;;;;;4.40;1.60;;;24.80;93.10;;;;;;5114115;27;20183;-42
2023/06/30 10:28:55;;;;;;;6.00;2.30;;;24.70;91.60;;;;;;5094129;27;20442;-43
2023/06/30 10:31:21;;;;;;;6.13;2.25;;;24.50;91.90;;;;;;5117170;27;20031;-41
2023/06/30 10:33:47;;;;;;;4.80;1.52;;;24.40;93.50;;;;;;5114237;27;20062;-41
2023/06/30 10:36:15;;;;;;;7.93;2.15;;;24.40;93.00;;;;;;5110170;27;20507;-42
2023/06/30 10:38:43;;;;;;;5.05;1.98;;;24.20;92.40;;;;;;5110407;27;20409;-40
2023/06/30 10:41:19;;;;;;;7.70;2.25;;;24.40;93.40;;;;;;5111279;27;20366;-40
2023/06/30 10:44:03;;;;;;;5.32;1.85;;;24.30;93.90;;;;;;5111330;27;20066;-41
2023/06/30 10:46:47;;;;;;;5.00;1.60;;;24.60;95.70;;;;;;5114761;27;20043;-41
2023/06/30 10:49:29;;;;;;;5.43;1.92;;;24.80;93.00;;;;;;5092658;27;20090;-41
2023/06/30 10:51:56;;;;;;;8.13;2.10;;;24.70;93.20;;;;;;5112777;27;20035;-40
2023/06/30 10:54:38;;;;;;;6.10;2.42;;;24.50;93.20;;;;;;5115081;27;20359;-41
2023/06/30 10:57:08;;;;;;;7.65;2.40;;;24.10;95.10;;;;;;5107834;27;20044;-40
2023/06/30 10:59:41;;;;;;;5.80;2.22;;;23.90;95.90;;;;;;5111349;27;20043;-41
2023/06/30 11:02:19;;;;;;;6.03;2.08;;;23.80;93.20;;;;;;5092087;27;20573;-40
2023/06/30 11:04:49;;;;;;;3.40;2.10;;;23.60;94.50;;;;;;5113289;27;20091;-41
2023/06/30 11:07:26;;;;;;;4.93;2.03;;;23.80;94.30;;;;;;5112458;27;20043;-41
2023/06/30 11:09:51;;;;;;;6.45;2.25;;;23.90;94.30;;;;;;5114495;27;20187;-41
2023/06/30 11:12:25;;;;;;;2.97;1.60;;;24.00;93.70;;;;;;5114833;27;20504;-41
2023/06/30 11:14:58;;;;;;;6.55;2.20;;;24.00;94.20;;;;;;5115219;27;20050;-42
2023/06/30 11:17:47;;;;;;;4.47;2.47;;;23.80;93.70;;;;;;5133337;27;20530;-41
2023/06/30 11:20:13;;;;;;;6.82;2.30;;;23.40;94.10;;;;;;5134227;27;20092;-42
2023/06/30 11:22:40;;;;;;;4.78;2.22;;;23.80;95.30;;;;;;5134263;27;20125;-40
2023/06/30 11:25:10;;;;;;;4.22;2.10;;;23.60;96.40;;;;;;5114462;27;20891;-40
2023/06/30 11:27:39;;;;;;;7.03;2.22;;;23.60;95.90;;;;;;5133644;27;20081;-40
2023/06/30 11:30:06;;;;;;;6.18;2.22;;;23.50;95.20;;;;;;5102491;28;20154;-40
2023/06/30 11:32:33;;;;;;;4.68;1.90;;;23.40;94.40;;;;;;5118717;27;20491;-40
2023/06/30 11:35:01;;;;;;;7.18;2.55;;;23.30;94.10;;;;;;5111707;27;20062;-40
2023/06/30 11:37:27;;;;;;;7.70;2.50;;;23.40;95.20;;;;;;5108494;27;20367;-40
2023/06/30 11:39:55;;;;;;;4.90;2.10;;;23.50;95.80;;;;;;5110800;27;20051;-40
2023/06/30 11:42:21;;;;;;;4.32;2.17;;;23.50;95.30;;;;;;5113074;28;20051;-40
2023/06/30 11:44:51;;;;;;;6.35;2.42;;;23.50;95.00;;;;;;5112526;27;20081;-41
2023/06/30 11:47:18;;;;;;;7.78;2.42;;;23.70;95.60;;;;;;5099446;28;20051;-40
2023/06/30 11:49:46;;;;;;;6.00;2.92;;;24.10;96.50;;;;;;5095954;27;20475;-41
2023/06/30 11:52:11;;;;;;;12.52;3.30;;;24.50;95.80;;;;;;5097003;27;20221;-41
2023/06/30 11:54:37;;;;;;;6.10;2.40;;;24.60;95.30;;;;;;5105748;27;21090;-41
2023/06/30 11:57:04;;;;;;;4.93;2.28;;;24.50;94.20;;;;;;5079761;27;20043;-40
2023/06/30 11:59:31;;;;;;;6.30;2.67;;;24.50;94.90;;;;;;5108034;27;20079;-40
2023/06/30 12:01:57;;;;;;;5.75;2.38;;;24.60;95.60;;;;;;5109811;27;20035;-40
2023/06/30 12:04:22;;;;;;;6.07;2.50;;;24.70;95.60;;;;;;5110249;27;20583;-41
2023/06/30 12:06:49;;;;;;;7.57;2.40;;;24.90;95.20;;;;;;5085687;27;20119;-41
2023/06/30 12:09:15;;;;;;;6.40;2.72;;;24.80;93.80;;;;;;5101365;27;20334;-40
2023/06/30 12:11:42;;;;;;;9.43;2.60;;;24.70;94.40;;;;;;5114281;27;20526;-40
2023/06/30 12:14:08;;;;;;;8.27;2.38;;;24.50;94.20;;;;;;5113254;27;20171;-40
2023/06/30 12:16:45;;;;;;;6.53;2.47;;;24.30;94.80;;;;;;5091348;27;20039;-40
2023/06/30 12:19:12;;;;;;;6.00;2.40;;;24.10;95.00;;;;;;5092744;27;20249;-40
2023/06/30 12:21:55;;;;;;;3.70;2.40;;;23.80;94.40;;;;;;5113631;27;20616;-40
2023/06/30 12:24:22;;;;;;;9.75;2.95;;;23.70;95.10;;;;;;5114178;27;20076;-42
2023/06/30 12:26:49;;;;;;;4.25;1.88;;;23.60;94.50;;;;;;5095087;27;20598;-40
2023/06/30 12:29:19;;;;;;;12.02;3.15;;;23.60;95.10;;;;;;5112891;27;20043;-40
2023/06/30 12:31:46;;;;;;;3.90;2.20;;;23.80;96.10;;;;;;5113402;27;20120;-41
2023/06/30 12:34:13;;;;;;;9.30;2.60;;;23.70;95.40;;;;;;5101832;27;20112;-40
2023/06/30 12:36:42;;;;;;;5.93;2.75;;;23.70;95.10;;;;;;5099061;27;20126;-40
2023/06/30 12:39:07;;;;;;;6.32;2.65;;;23.50;95.40;;;;;;5066622;27;20072;-42
2023/06/30 12:41:33;;;;;;;6.88;2.50;;;23.50;95.00;;;;;;5112497;27;20030;-40
2023/06/30 12:44:01;;;;;;;5.43;2.40;;;23.40;94.90;;;;;;5107571;27;20899;-40
2023/06/30 12:46:27;;;;;;;6.72;3.05;;;23.60;95.00;;;;;;5103642;27;20046;-40